AZU2945 SBVT-SBKP
Flight info
| Callsign | AZU2945 |
|---|---|
| Flight time | 1h 18m |
| Altitude | 28000 |
| Route | USVAG DCT SIDUR DCT EDMUS |
| Aircraft | A20N/M-SDE2E3FGHIRWXY/LB1 |
Departure
| Time | 2026-05-07 00:29 |
|---|---|
| Airport | Eurico de Aguiar Salles International Airport (SBVT) |
Arrival
| Time | 2026-05-07 01:47 |
|---|---|
| Airport | Viracopos International Airport (SBKP) |
| Time | Latitude | Longitude | Altitude | Speed | Heading |
|---|---|---|---|---|---|
| 2026-05-07 00:00 | -20.26464 | -40.28176 | 35 ft | 0 kts | 261° |
| 2026-05-07 00:20 | -20.26463 | -40.28172 | 35 ft | 3 kts | 261° |
| 2026-05-07 00:20 | -20.26461 | -40.28152 | 35 ft | 3 kts | 261° |
| 2026-05-07 00:20 | -20.26458 | -40.28132 | 35 ft | 3 kts | 287° |
| 2026-05-07 00:20 | -20.26466 | -40.28116 | 33 ft | 3 kts | 339° |
| 2026-05-07 00:21 | -20.26467 | -40.28115 | 33 ft | 0 kts | 346° |
| 2026-05-07 00:23 | -20.26460 | -40.28116 | 35 ft | 7 kts | 353° |
| 2026-05-07 00:23 | -20.26375 | -40.28119 | 33 ft | 13 kts | 5° |
| 2026-05-07 00:23 | -20.26297 | -40.28073 | 34 ft | 13 kts | 9° |
| 2026-05-07 00:24 | -20.26187 | -40.28087 | 31 ft | 20 kts | 351° |
| 2026-05-07 00:24 | -20.26047 | -40.28108 | 32 ft | 21 kts | 352° |
| 2026-05-07 00:24 | -20.25899 | -40.28130 | 30 ft | 22 kts | 352° |
| 2026-05-07 00:24 | -20.25747 | -40.28152 | 29 ft | 22 kts | 353° |
| 2026-05-07 00:25 | -20.25624 | -40.28169 | 28 ft | 17 kts | 352° |
| 2026-05-07 00:25 | -20.25503 | -40.28187 | 30 ft | 18 kts | 352° |
| 2026-05-07 00:25 | -20.25372 | -40.28207 | 26 ft | 20 kts | 353° |
| 2026-05-07 00:25 | -20.25231 | -40.28227 | 22 ft | 21 kts | 351° |
| 2026-05-07 00:26 | -20.25088 | -40.28209 | 21 ft | 21 kts | 22° |
| 2026-05-07 00:26 | -20.24963 | -40.28132 | 23 ft | 21 kts | 29° |
| 2026-05-07 00:26 | -20.24844 | -40.28081 | 21 ft | 14 kts | 27° |
| 2026-05-07 00:26 | -20.24787 | -40.28095 | 19 ft | 3 kts | 269° |
| 2026-05-07 00:27 | -20.24816 | -40.28111 | 19 ft | 7 kts | 176° |
| 2026-05-07 00:27 | -20.24822 | -40.28111 | 19 ft | 0 kts | 173° |
| 2026-05-07 00:28 | -20.24824 | -40.28110 | 19 ft | 4 kts | 172° |
| 2026-05-07 00:28 | -20.25059 | -40.28072 | 22 ft | 70 kts | 172° |
| 2026-05-07 00:28 | -20.25768 | -40.27971 | 33 ft | 134 kts | 172° |
| 2026-05-07 00:29 | -20.26801 | -40.27828 | 330 ft | 152 kts | 173° |
| 2026-05-07 00:29 | -20.27824 | -40.27677 | 1004 ft | 146 kts | 172° |
| 2026-05-07 00:30 | -20.31626 | -40.27108 | 2004 ft | 236 kts | 172° |
| 2026-05-07 00:30 | -20.33328 | -40.26854 | 2618 ft | 254 kts | 171° |
| 2026-05-07 00:30 | -20.35109 | -40.26641 | 3471 ft | 261 kts | 178° |
| 2026-05-07 00:30 | -20.36904 | -40.26975 | 4326 ft | 269 kts | 202° |
| 2026-05-07 00:31 | -20.38383 | -40.28207 | 5144 ft | 277 kts | 233° |
| 2026-05-07 00:31 | -20.39103 | -40.30118 | 5994 ft | 282 kts | 261° |
| 2026-05-07 00:31 | -20.39301 | -40.32208 | 6853 ft | 286 kts | 267° |
| 2026-05-07 00:31 | -20.39405 | -40.34336 | 7699 ft | 289 kts | 268° |
| 2026-05-07 00:32 | -20.39505 | -40.36454 | 8566 ft | 291 kts | 267° |
| 2026-05-07 00:32 | -20.39618 | -40.38622 | 9455 ft | 294 kts | 267° |
| 2026-05-07 00:32 | -20.39741 | -40.40810 | 10323 ft | 298 kts | 267° |
| 2026-05-07 00:32 | -20.39873 | -40.43081 | 10780 ft | 317 kts | 267° |
| 2026-05-07 00:33 | -20.40017 | -40.45495 | 11193 ft | 334 kts | 266° |
| 2026-05-07 00:33 | -20.40169 | -40.47998 | 11862 ft | 341 kts | 266° |
| 2026-05-07 00:33 | -20.40324 | -40.50541 | 12603 ft | 346 kts | 266° |
| 2026-05-07 00:33 | -20.40480 | -40.53116 | 13395 ft | 350 kts | 266° |
| 2026-05-07 00:34 | -20.40638 | -40.55719 | 14178 ft | 354 kts | 266° |
| 2026-05-07 00:34 | -20.40866 | -40.58346 | 14902 ft | 358 kts | 259° |
| 2026-05-07 00:34 | -20.41719 | -40.60840 | 15589 ft | 362 kts | 238° |
| 2026-05-07 00:34 | -20.43414 | -40.62821 | 16288 ft | 364 kts | 218° |
| 2026-05-07 00:35 | -20.45468 | -40.64420 | 16991 ft | 368 kts | 214° |
| 2026-05-07 00:35 | -20.47595 | -40.65957 | 17706 ft | 371 kts | 213° |
| 2026-05-07 00:35 | -20.49747 | -40.67510 | 18380 ft | 375 kts | 213° |
| 2026-05-07 00:35 | -20.51912 | -40.69085 | 18962 ft | 379 kts | 214° |
| 2026-05-07 00:36 | -20.54094 | -40.70685 | 19557 ft | 382 kts | 214° |
| 2026-05-07 00:36 | -20.56290 | -40.72300 | 20201 ft | 384 kts | 214° |
| 2026-05-07 00:36 | -20.58489 | -40.73922 | 20848 ft | 386 kts | 213° |
| 2026-05-07 00:36 | -20.60700 | -40.75556 | 21504 ft | 388 kts | 213° |
| 2026-05-07 00:37 | -20.62924 | -40.77200 | 22172 ft | 390 kts | 214° |
| 2026-05-07 00:37 | -20.65159 | -40.78855 | 22793 ft | 393 kts | 214° |
| 2026-05-07 00:37 | -20.67405 | -40.80541 | 23390 ft | 396 kts | 216° |
| 2026-05-07 00:37 | -20.69481 | -40.82486 | 23933 ft | 400 kts | 226° |
| 2026-05-07 00:38 | -20.71254 | -40.84793 | 24441 ft | 403 kts | 232° |
| 2026-05-07 00:38 | -20.72891 | -40.87237 | 24940 ft | 406 kts | 234° |
| 2026-05-07 00:38 | -20.74441 | -40.89719 | 25427 ft | 408 kts | 236° |
| 2026-05-07 00:38 | -20.76008 | -40.92303 | 25923 ft | 411 kts | 236° |
| 2026-05-07 00:39 | -20.77539 | -40.94839 | 26397 ft | 413 kts | 236° |
| 2026-05-07 00:39 | -20.79106 | -40.97417 | 26871 ft | 415 kts | 236° |
| 2026-05-07 00:39 | -20.80693 | -41.00005 | 27330 ft | 417 kts | 236° |
| 2026-05-07 00:39 | -20.82296 | -41.02600 | 27757 ft | 419 kts | 235° |
| 2026-05-07 00:40 | -20.83913 | -41.05204 | 28099 ft | 422 kts | 235° |
| 2026-05-07 00:40 | -20.85536 | -41.07813 | 28178 ft | 422 kts | 235° |
| 2026-05-07 00:40 | -20.88792 | -41.13044 | 28185 ft | 423 kts | 235° |
| 2026-05-07 00:41 | -20.92049 | -41.18281 | 28182 ft | 423 kts | 235° |
| 2026-05-07 00:41 | -20.95302 | -41.23519 | 28183 ft | 423 kts | 235° |
| 2026-05-07 00:42 | -20.98550 | -41.28756 | 28177 ft | 422 kts | 235° |
| 2026-05-07 00:42 | -21.01797 | -41.33997 | 28179 ft | 422 kts | 235° |
| 2026-05-07 00:43 | -21.05043 | -41.39241 | 28177 ft | 422 kts | 235° |
| 2026-05-07 00:43 | -21.08284 | -41.44481 | 28187 ft | 422 kts | 235° |
| 2026-05-07 00:44 | -21.11521 | -41.49719 | 28175 ft | 422 kts | 235° |
| 2026-05-07 00:44 | -21.14758 | -41.54962 | 28178 ft | 422 kts | 235° |
| 2026-05-07 00:45 | -21.17991 | -41.60204 | 28181 ft | 422 kts | 235° |
| 2026-05-07 00:45 | -21.21220 | -41.65444 | 28174 ft | 421 kts | 235° |
| 2026-05-07 00:46 | -21.24449 | -41.70689 | 28175 ft | 421 kts | 235° |
| 2026-05-07 00:46 | -21.27648 | -41.75892 | 28171 ft | 421 kts | 235° |
| 2026-05-07 00:47 | -21.30868 | -41.81131 | 28169 ft | 420 kts | 235° |
| 2026-05-07 00:47 | -21.34083 | -41.86368 | 28174 ft | 420 kts | 235° |
| 2026-05-07 00:48 | -21.37296 | -41.91608 | 28174 ft | 420 kts | 235° |
| 2026-05-07 00:48 | -21.40505 | -41.96847 | 28169 ft | 420 kts | 235° |
| 2026-05-07 00:49 | -21.43708 | -42.02080 | 28170 ft | 419 kts | 235° |
| 2026-05-07 00:49 | -21.46911 | -42.07315 | 28168 ft | 419 kts | 235° |
| 2026-05-07 00:50 | -21.50107 | -42.12546 | 28168 ft | 419 kts | 235° |
| 2026-05-07 00:50 | -21.53304 | -42.17785 | 28165 ft | 419 kts | 235° |
| 2026-05-07 00:51 | -21.56497 | -42.23021 | 28171 ft | 419 kts | 235° |
| 2026-05-07 00:51 | -21.59683 | -42.28251 | 28170 ft | 418 kts | 235° |
| 2026-05-07 00:52 | -21.62864 | -42.33476 | 28168 ft | 418 kts | 235° |
| 2026-05-07 00:52 | -21.66046 | -42.38708 | 28169 ft | 418 kts | 235° |
| 2026-05-07 00:53 | -21.69225 | -42.43942 | 28172 ft | 418 kts | 235° |
| 2026-05-07 00:53 | -21.72401 | -42.49176 | 28173 ft | 418 kts | 235° |
| 2026-05-07 00:54 | -21.75575 | -42.54411 | 28179 ft | 418 kts | 235° |
| 2026-05-07 00:54 | -21.78743 | -42.59641 | 28179 ft | 417 kts | 235° |
| 2026-05-07 00:55 | -21.81913 | -42.64879 | 28187 ft | 417 kts | 234° |
| 2026-05-07 00:55 | -21.85076 | -42.70110 | 28184 ft | 417 kts | 234° |
| 2026-05-07 00:56 | -21.88237 | -42.75344 | 28195 ft | 417 kts | 235° |
| 2026-05-07 00:56 | -21.91395 | -42.80578 | 28190 ft | 417 kts | 234° |
| 2026-05-07 00:57 | -21.94018 | -42.84928 | 28193 ft | 417 kts | 235° |
| 2026-05-07 00:57 | -21.97170 | -42.90161 | 28194 ft | 417 kts | 235° |
| 2026-05-07 00:58 | -22.00322 | -42.95399 | 28195 ft | 417 kts | 235° |
| 2026-05-07 00:58 | -22.03474 | -43.00643 | 28198 ft | 417 kts | 235° |
| 2026-05-07 00:59 | -22.08697 | -43.09341 | 28195 ft | 415 kts | 235° |
| 2026-05-07 01:00 | -22.11322 | -43.13718 | 28195 ft | 415 kts | 236° |
| 2026-05-07 01:00 | -22.14452 | -43.18943 | 28196 ft | 415 kts | 235° |
| 2026-05-07 01:01 | -22.17583 | -43.24173 | 28198 ft | 415 kts | 235° |
| 2026-05-07 01:01 | -22.20688 | -43.29367 | 28187 ft | 414 kts | 235° |
| 2026-05-07 01:02 | -22.23805 | -43.34586 | 28190 ft | 414 kts | 236° |
| 2026-05-07 01:02 | -22.26922 | -43.39809 | 28180 ft | 413 kts | 236° |
| 2026-05-07 01:03 | -22.30031 | -43.45025 | 28186 ft | 413 kts | 236° |
| 2026-05-07 01:03 | -22.33139 | -43.50243 | 28179 ft | 413 kts | 236° |
| 2026-05-07 01:04 | -22.36240 | -43.55452 | 28179 ft | 412 kts | 236° |
| 2026-05-07 01:04 | -22.39330 | -43.60652 | 28173 ft | 411 kts | 236° |
| 2026-05-07 01:05 | -22.42414 | -43.65845 | 28172 ft | 410 kts | 236° |
| 2026-05-07 01:05 | -22.45490 | -43.71030 | 28171 ft | 409 kts | 236° |
| 2026-05-07 01:06 | -22.48562 | -43.76212 | 28174 ft | 409 kts | 236° |
| 2026-05-07 01:06 | -22.51631 | -43.81394 | 28168 ft | 409 kts | 236° |
| 2026-05-07 01:07 | -22.54692 | -43.86571 | 28167 ft | 408 kts | 235° |
| 2026-05-07 01:07 | -22.57746 | -43.91739 | 28168 ft | 408 kts | 235° |
| 2026-05-07 01:08 | -22.60797 | -43.96907 | 28165 ft | 407 kts | 235° |
| 2026-05-07 01:08 | -22.63849 | -44.02081 | 28163 ft | 407 kts | 235° |
| 2026-05-07 01:09 | -22.66892 | -44.07246 | 28162 ft | 406 kts | 235° |
| 2026-05-07 01:09 | -22.69928 | -44.12404 | 28161 ft | 406 kts | 235° |
| 2026-05-07 01:10 | -22.72961 | -44.17562 | 28164 ft | 406 kts | 235° |
| 2026-05-07 01:10 | -22.75757 | -44.22879 | 28157 ft | 408 kts | 243° |
| 2026-05-07 01:11 | -22.77973 | -44.28541 | 28169 ft | 408 kts | 244° |
| 2026-05-07 01:11 | -22.80122 | -44.34219 | 28168 ft | 407 kts | 245° |
| 2026-05-07 01:12 | -22.82263 | -44.39907 | 28173 ft | 407 kts | 245° |
| 2026-05-07 01:12 | -22.84399 | -44.45592 | 28164 ft | 407 kts | 244° |
| 2026-05-07 01:13 | -22.86530 | -44.51275 | 28174 ft | 407 kts | 244° |
| 2026-05-07 01:13 | -22.88658 | -44.56956 | 28180 ft | 406 kts | 244° |
| 2026-05-07 01:14 | -22.90782 | -44.62637 | 28177 ft | 406 kts | 244° |
| 2026-05-07 01:14 | -22.92903 | -44.68315 | 28172 ft | 406 kts | 244° |
| 2026-05-07 01:15 | -22.95024 | -44.74001 | 28180 ft | 406 kts | 244° |
| 2026-05-07 01:15 | -22.97141 | -44.79682 | 28184 ft | 406 kts | 244° |
| 2026-05-07 01:16 | -22.99256 | -44.85368 | 28187 ft | 406 kts | 244° |
| 2026-05-07 01:16 | -23.01368 | -44.91051 | 28189 ft | 406 kts | 244° |
| 2026-05-07 01:17 | -23.03479 | -44.96737 | 28187 ft | 406 kts | 244° |
| 2026-05-07 01:17 | -23.05587 | -45.02426 | 28187 ft | 406 kts | 244° |
| 2026-05-07 01:18 | -23.07693 | -45.08113 | 28188 ft | 406 kts | 244° |
| 2026-05-07 01:18 | -23.09794 | -45.13797 | 28137 ft | 403 kts | 244° |
| 2026-05-07 01:18 | -23.10823 | -45.16588 | 27897 ft | 393 kts | 244° |
| 2026-05-07 01:19 | -23.11824 | -45.19307 | 27650 ft | 383 kts | 244° |
| 2026-05-07 01:19 | -23.12804 | -45.21965 | 27407 ft | 376 kts | 244° |
| 2026-05-07 01:19 | -23.13776 | -45.24599 | 27161 ft | 375 kts | 244° |
| 2026-05-07 01:19 | -23.14736 | -45.27201 | 26912 ft | 376 kts | 244° |
| 2026-05-07 01:20 | -23.15707 | -45.29835 | 26681 ft | 376 kts | 244° |
| 2026-05-07 01:20 | -23.16678 | -45.32471 | 26432 ft | 375 kts | 244° |
| 2026-05-07 01:20 | -23.17645 | -45.35098 | 26187 ft | 375 kts | 245° |
| 2026-05-07 01:20 | -23.18594 | -45.37737 | 25956 ft | 375 kts | 247° |
| 2026-05-07 01:21 | -23.19338 | -45.40456 | 25725 ft | 376 kts | 252° |
| 2026-05-07 01:21 | -23.19968 | -45.43212 | 25487 ft | 375 kts | 253° |
| 2026-05-07 01:21 | -23.20576 | -45.45967 | 25251 ft | 374 kts | 253° |
| 2026-05-07 01:21 | -23.21180 | -45.48717 | 25026 ft | 374 kts | 253° |
| 2026-05-07 01:22 | -23.21785 | -45.51464 | 24798 ft | 374 kts | 253° |
| 2026-05-07 01:22 | -23.22390 | -45.54209 | 24572 ft | 374 kts | 253° |
| 2026-05-07 01:22 | -23.23067 | -45.56928 | 24352 ft | 372 kts | 250° |
| 2026-05-07 01:22 | -23.23808 | -45.59616 | 24124 ft | 371 kts | 250° |
| 2026-05-07 01:23 | -23.24558 | -45.62290 | 23918 ft | 370 kts | 250° |
| 2026-05-07 01:23 | -23.25309 | -45.64964 | 23688 ft | 369 kts | 250° |
| 2026-05-07 01:23 | -23.26055 | -45.67629 | 23430 ft | 368 kts | 250° |
| 2026-05-07 01:23 | -23.26800 | -45.70292 | 23231 ft | 368 kts | 250° |
| 2026-05-07 01:24 | -23.27542 | -45.72952 | 23201 ft | 368 kts | 250° |
| 2026-05-07 01:24 | -23.28284 | -45.75614 | 23206 ft | 367 kts | 250° |
| 2026-05-07 01:24 | -23.29024 | -45.78269 | 23211 ft | 367 kts | 250° |
| 2026-05-07 01:24 | -23.29763 | -45.80927 | 23211 ft | 367 kts | 250° |
| 2026-05-07 01:25 | -23.30500 | -45.83578 | 23211 ft | 366 kts | 250° |
| 2026-05-07 01:25 | -23.31236 | -45.86229 | 23210 ft | 366 kts | 250° |
| 2026-05-07 01:25 | -23.31972 | -45.88882 | 23210 ft | 366 kts | 250° |
| 2026-05-07 01:25 | -23.32708 | -45.91532 | 23209 ft | 366 kts | 250° |
| 2026-05-07 01:26 | -23.33442 | -45.94181 | 23159 ft | 366 kts | 250° |
| 2026-05-07 01:26 | -23.34178 | -45.96837 | 23157 ft | 366 kts | 250° |
| 2026-05-07 01:26 | -23.34912 | -45.99488 | 23155 ft | 366 kts | 250° |
| 2026-05-07 01:26 | -23.35645 | -46.02139 | 23153 ft | 366 kts | 250° |
| 2026-05-07 01:27 | -23.36378 | -46.04791 | 23158 ft | 366 kts | 250° |
| 2026-05-07 01:27 | -23.37111 | -46.07442 | 23158 ft | 366 kts | 250° |
| 2026-05-07 01:27 | -23.37855 | -46.10092 | 23011 ft | 366 kts | 250° |
| 2026-05-07 01:27 | -23.38602 | -46.12735 | 22755 ft | 365 kts | 250° |
| 2026-05-07 01:28 | -23.39349 | -46.15378 | 22503 ft | 365 kts | 250° |
| 2026-05-07 01:28 | -23.40093 | -46.18012 | 22250 ft | 364 kts | 250° |
| 2026-05-07 01:28 | -23.40837 | -46.20649 | 21998 ft | 363 kts | 250° |
| 2026-05-07 01:28 | -23.41567 | -46.23238 | 21761 ft | 363 kts | 250° |
| 2026-05-07 01:29 | -23.42308 | -46.25864 | 21519 ft | 362 kts | 250° |
| 2026-05-07 01:29 | -23.43045 | -46.28481 | 21285 ft | 362 kts | 250° |
| 2026-05-07 01:29 | -23.43781 | -46.31098 | 21045 ft | 361 kts | 251° |
| 2026-05-07 01:29 | -23.44514 | -46.33716 | 20804 ft | 361 kts | 251° |
| 2026-05-07 01:30 | -23.44987 | -46.36402 | 20572 ft | 363 kts | 265° |
| 2026-05-07 01:30 | -23.44724 | -46.39135 | 20337 ft | 366 kts | 284° |
| 2026-05-07 01:30 | -23.43654 | -46.41652 | 20106 ft | 368 kts | 301° |
| 2026-05-07 01:30 | -23.42218 | -46.43962 | 19873 ft | 369 kts | 304° |
| 2026-05-07 01:31 | -23.40722 | -46.46227 | 19646 ft | 368 kts | 305° |
| 2026-05-07 01:31 | -23.39231 | -46.48478 | 19415 ft | 367 kts | 305° |
| 2026-05-07 01:31 | -23.37748 | -46.50732 | 19181 ft | 365 kts | 305° |
| 2026-05-07 01:31 | -23.36273 | -46.52982 | 18963 ft | 364 kts | 305° |
| 2026-05-07 01:32 | -23.34805 | -46.55227 | 18738 ft | 363 kts | 305° |
| 2026-05-07 01:32 | -23.33344 | -46.57465 | 18507 ft | 362 kts | 305° |
| 2026-05-07 01:32 | -23.31890 | -46.59694 | 18246 ft | 361 kts | 305° |
| 2026-05-07 01:32 | -23.30439 | -46.61918 | 17957 ft | 360 kts | 305° |
| 2026-05-07 01:33 | -23.28883 | -46.64037 | 17457 ft | 357 kts | 315° |
| 2026-05-07 01:33 | -23.27045 | -46.65832 | 17009 ft | 354 kts | 321° |
| 2026-05-07 01:33 | -23.25148 | -46.67514 | 16566 ft | 351 kts | 322° |
| 2026-05-07 01:33 | -23.23251 | -46.69170 | 16118 ft | 348 kts | 322° |
| 2026-05-07 01:34 | -23.21375 | -46.70810 | 15685 ft | 345 kts | 322° |
| 2026-05-07 01:34 | -23.19513 | -46.72440 | 15432 ft | 343 kts | 322° |
| 2026-05-07 01:34 | -23.17658 | -46.74068 | 15204 ft | 343 kts | 322° |
| 2026-05-07 01:34 | -23.15816 | -46.75686 | 14978 ft | 336 kts | 322° |
| 2026-05-07 01:35 | -23.14012 | -46.77272 | 14637 ft | 333 kts | 322° |
| 2026-05-07 01:35 | -23.12211 | -46.78853 | 14220 ft | 333 kts | 322° |
| 2026-05-07 01:35 | -23.10411 | -46.80434 | 13783 ft | 333 kts | 322° |
| 2026-05-07 01:35 | -23.08639 | -46.81990 | 13340 ft | 330 kts | 322° |
| 2026-05-07 01:36 | -23.06862 | -46.83551 | 12942 ft | 326 kts | 322° |
| 2026-05-07 01:36 | -23.05111 | -46.85093 | 12542 ft | 323 kts | 321° |
| 2026-05-07 01:36 | -23.03569 | -46.86850 | 12137 ft | 322 kts | 305° |
| 2026-05-07 01:36 | -23.02694 | -46.89072 | 11761 ft | 321 kts | 285° |
| 2026-05-07 01:37 | -23.02249 | -46.91439 | 11357 ft | 319 kts | 281° |
| 2026-05-07 01:37 | -23.01709 | -46.93752 | 11004 ft | 313 kts | 294° |
| 2026-05-07 01:37 | -23.00621 | -46.95779 | 10766 ft | 311 kts | 307° |
| 2026-05-07 01:37 | -22.99327 | -46.97641 | 10565 ft | 304 kts | 309° |
| 2026-05-07 01:38 | -22.98040 | -46.99411 | 10360 ft | 295 kts | 310° |
| 2026-05-07 01:38 | -22.96775 | -47.01141 | 10058 ft | 292 kts | 310° |
| 2026-05-07 01:38 | -22.95519 | -47.02861 | 9732 ft | 289 kts | 310° |
| 2026-05-07 01:38 | -22.94275 | -47.04568 | 9490 ft | 288 kts | 310° |
| 2026-05-07 01:39 | -22.93035 | -47.06271 | 9259 ft | 288 kts | 310° |
| 2026-05-07 01:39 | -22.91795 | -47.07977 | 8956 ft | 288 kts | 310° |
| 2026-05-07 01:39 | -22.90553 | -47.09685 | 8444 ft | 289 kts | 310° |
| 2026-05-07 01:39 | -22.89306 | -47.11399 | 7961 ft | 289 kts | 310° |
| 2026-05-07 01:40 | -22.88067 | -47.13103 | 7543 ft | 288 kts | 310° |
| 2026-05-07 01:40 | -22.86850 | -47.14778 | 7328 ft | 277 kts | 309° |
| 2026-05-07 01:40 | -22.85684 | -47.16383 | 7182 ft | 265 kts | 310° |
| 2026-05-07 01:40 | -22.84566 | -47.17921 | 7048 ft | 254 kts | 309° |
| 2026-05-07 01:41 | -22.83602 | -47.19473 | 6927 ft | 244 kts | 297° |
| 2026-05-07 01:41 | -22.83166 | -47.21189 | 6853 ft | 229 kts | 275° |
| 2026-05-07 01:41 | -22.83362 | -47.22843 | 6709 ft | 218 kts | 252° |
| 2026-05-07 01:41 | -22.84095 | -47.24242 | 6477 ft | 210 kts | 229° |
| 2026-05-07 01:42 | -22.85144 | -47.25264 | 6323 ft | 197 kts | 215° |
| 2026-05-07 01:42 | -22.86291 | -47.25967 | 6233 ft | 182 kts | 202° |
| 2026-05-07 01:42 | -22.87443 | -47.26360 | 6045 ft | 169 kts | 190° |
| 2026-05-07 01:42 | -22.88643 | -47.26494 | 5515 ft | 179 kts | 178° |
| 2026-05-07 01:43 | -22.89876 | -47.26331 | 5172 ft | 174 kts | 164° |
| 2026-05-07 01:43 | -22.90968 | -47.25927 | 4978 ft | 160 kts | 153° |
| 2026-05-07 01:43 | -22.91920 | -47.25338 | 4578 ft | 163 kts | 143° |
| 2026-05-07 01:43 | -22.92801 | -47.24486 | 4028 ft | 171 kts | 129° |
| 2026-05-07 01:44 | -22.93531 | -47.23522 | 3797 ft | 160 kts | 126° |
| 2026-05-07 01:44 | -22.94168 | -47.22643 | 3807 ft | 140 kts | 124° |
| 2026-05-07 01:44 | -22.94755 | -47.21819 | 3778 ft | 138 kts | 125° |
| 2026-05-07 01:44 | -22.95346 | -47.20996 | 3615 ft | 138 kts | 125° |
| 2026-05-07 01:45 | -22.95934 | -47.20175 | 3444 ft | 138 kts | 124° |
| 2026-05-07 01:45 | -22.96523 | -47.19350 | 3259 ft | 137 kts | 124° |
| 2026-05-07 01:45 | -22.97105 | -47.18534 | 3081 ft | 136 kts | 125° |
| 2026-05-07 01:45 | -22.97684 | -47.17723 | 2906 ft | 136 kts | 127° |
| 2026-05-07 01:46 | -22.98269 | -47.16904 | 2717 ft | 138 kts | 127° |
| 2026-05-07 01:46 | -22.98856 | -47.16082 | 2522 ft | 137 kts | 127° |
| 2026-05-07 01:46 | -22.99439 | -47.15264 | 2329 ft | 137 kts | 127° |
| 2026-05-07 01:46 | -23.00016 | -47.14454 | 2158 ft | 131 kts | 127° |
| 2026-05-07 01:47 | -23.00506 | -47.13770 | 2154 ft | 86 kts | 128° |
| 2026-05-07 01:47 | -23.00816 | -47.13335 | 2158 ft | 51 kts | 128° |
| 2026-05-07 01:47 | -23.00954 | -47.13145 | 2161 ft | 46 kts | 128° |
| 2026-05-07 01:47 | -23.01150 | -47.12907 | 2163 ft | 20 kts | 142° |
| 2026-05-07 01:48 | -23.01271 | -47.12830 | 2163 ft | 16 kts | 159° |
| 2026-05-07 01:48 | -23.01312 | -47.12812 | 2164 ft | 0 kts | 157° |
| 2026-05-07 01:49 | -23.01315 | -47.12811 | 2161 ft | 3 kts | 157° |
| 2026-05-07 01:50 | -23.01356 | -47.12803 | 2169 ft | 9 kts | 192° |
| 2026-05-07 01:50 | -23.01375 | -47.12875 | 2168 ft | 15 kts | 295° |
| 2026-05-07 01:50 | -23.01300 | -47.12988 | 2169 ft | 24 kts | 307° |
| 2026-05-07 01:50 | -23.01198 | -47.13127 | 2163 ft | 24 kts | 309° |
| 2026-05-07 01:51 | -23.01095 | -47.13271 | 2165 ft | 24 kts | 306° |
| 2026-05-07 01:51 | -23.00990 | -47.13419 | 2157 ft | 25 kts | 307° |
| 2026-05-07 01:51 | -23.00897 | -47.13551 | 2160 ft | 21 kts | 307° |
| 2026-05-07 01:51 | -23.00806 | -47.13678 | 2156 ft | 22 kts | 308° |
| 2026-05-07 01:52 | -23.00712 | -47.13809 | 2158 ft | 22 kts | 308° |
| 2026-05-07 01:52 | -23.00615 | -47.13945 | 2158 ft | 23 kts | 308° |
| 2026-05-07 01:52 | -23.00514 | -47.14084 | 2156 ft | 24 kts | 308° |
| 2026-05-07 01:52 | -23.00413 | -47.14226 | 2150 ft | 23 kts | 307° |
| 2026-05-07 01:53 | -23.00319 | -47.14357 | 2153 ft | 22 kts | 308° |
| 2026-05-07 01:53 | -23.00227 | -47.14483 | 2151 ft | 17 kts | 308° |
| 2026-05-07 01:53 | -23.00207 | -47.14575 | 2147 ft | 13 kts | 237° |
| 2026-05-07 01:53 | -23.00276 | -47.14637 | 2149 ft | 13 kts | 219° |
| 2026-05-07 01:54 | -23.00343 | -47.14697 | 2150 ft | 11 kts | 219° |
| 2026-05-07 01:54 | -23.00400 | -47.14720 | 2150 ft | 7 kts | 168° |
| 2026-05-07 01:54 | -23.00439 | -47.14716 | 2151 ft | 4 kts | 196° |
| 2026-05-07 01:54 | -23.00456 | -47.14733 | 2151 ft | 3 kts | 230° |
| 2026-05-07 01:55 | -23.00472 | -47.14748 | 2151 ft | 3 kts | 221° |
| 2026-05-07 01:55 | -23.00480 | -47.14755 | 2151 ft | 0 kts | 220° |